sensor_id;sensor_type;location;lat;lon;timestamp;P1;durP1;ratioP1;P2;durP2;ratioP2
3439;SDS011;1733;42.286;22.690;2023-03-23T00:00:13;27.63;;;15.20;;
3439;SDS011;1733;42.286;22.690;2023-03-23T00:02:41;28.70;;;15.07;;
3439;SDS011;1733;42.286;22.690;2023-03-23T00:05:10;25.47;;;13.73;;
3439;SDS011;1733;42.286;22.690;2023-03-23T00:07:37;22.33;;;11.33;;
3439;SDS011;1733;42.286;22.690;2023-03-23T00:10:10;33.53;;;17.87;;
3439;SDS011;1733;42.286;22.690;2023-03-23T00:12:37;31.43;;;14.90;;
3439;SDS011;1733;42.286;22.690;2023-03-23T00:15:07;46.97;;;16.93;;
3439;SDS011;1733;42.286;22.690;2023-03-23T00:17:38;31.13;;;16.50;;
3439;SDS011;1733;42.286;22.690;2023-03-23T00:20:05;35.60;;;18.73;;
3439;SDS011;1733;42.286;22.690;2023-03-23T00:22:37;38.90;;;20.13;;
3439;SDS011;1733;42.286;22.690;2023-03-23T00:25:06;44.10;;;21.93;;
3439;SDS011;1733;42.286;22.690;2023-03-23T00:27:34;59.57;;;25.63;;
3439;SDS011;1733;42.286;22.690;2023-03-23T00:30:01;43.07;;;17.60;;
3439;SDS011;1733;42.286;22.690;2023-03-23T00:32:28;30.70;;;15.20;;
3439;SDS011;1733;42.286;22.690;2023-03-23T00:34:55;30.17;;;13.60;;
3439;SDS011;1733;42.286;22.690;2023-03-23T00:37:24;23.50;;;12.90;;
3439;SDS011;1733;42.286;22.690;2023-03-23T00:39:52;39.13;;;20.60;;
3439;SDS011;1733;42.286;22.690;2023-03-23T00:42:22;29.63;;;16.93;;
3439;SDS011;1733;42.286;22.690;2023-03-23T00:44:49;31.00;;;16.37;;
3439;SDS011;1733;42.286;22.690;2023-03-23T00:47:19;40.00;;;19.10;;
3439;SDS011;1733;42.286;22.690;2023-03-23T00:49:46;37.17;;;20.57;;
3439;SDS011;1733;42.286;22.690;2023-03-23T00:52:13;25.47;;;13.13;;
3439;SDS011;1733;42.286;22.690;2023-03-23T00:54:40;27.07;;;18.73;;
3439;SDS011;1733;42.286;22.690;2023-03-23T00:57:08;14.13;;;10.20;;
3439;SDS011;1733;42.286;22.690;2023-03-23T00:59:35;17.83;;;10.23;;
3439;SDS011;1733;42.286;22.690;2023-03-23T01:02:02;12.17;;;9.20;;
3439;SDS011;1733;42.286;22.690;2023-03-23T01:04:29;15.30;;;8.87;;
3439;SDS011;1733;42.286;22.690;2023-03-23T01:06:56;19.93;;;9.50;;
3439;SDS011;1733;42.286;22.690;2023-03-23T01:09:26;28.27;;;11.87;;
3439;SDS011;1733;42.286;22.690;2023-03-23T01:11:53;18.10;;;11.50;;
3439;SDS011;1733;42.286;22.690;2023-03-23T01:14:23;21.70;;;11.20;;
3439;SDS011;1733;42.286;22.690;2023-03-23T01:16:50;20.30;;;10.90;;
3439;SDS011;1733;42.286;22.690;2023-03-23T01:19:17;19.70;;;11.37;;
3439;SDS011;1733;42.286;22.690;2023-03-23T01:21:44;18.40;;;10.30;;
3439;SDS011;1733;42.286;22.690;2023-03-23T01:24:11;20.93;;;12.03;;
3439;SDS011;1733;42.286;22.690;2023-03-23T01:26:38;22.80;;;11.90;;
3439;SDS011;1733;42.286;22.690;2023-03-23T01:29:05;26.93;;;15.50;;
3439;SDS011;1733;42.286;22.690;2023-03-23T01:31:33;25.40;;;12.67;;
3439;SDS011;1733;42.286;22.690;2023-03-23T01:34:01;21.80;;;14.63;;
3439;SDS011;1733;42.286;22.690;2023-03-23T01:36:29;23.00;;;11.40;;
3439;SDS011;1733;42.286;22.690;2023-03-23T01:38:58;19.40;;;12.90;;
3439;SDS011;1733;42.286;22.690;2023-03-23T01:41:26;27.23;;;17.10;;
3439;SDS011;1733;42.286;22.690;2023-03-23T01:43:54;31.20;;;16.57;;
3439;SDS011;1733;42.286;22.690;2023-03-23T01:46:26;30.07;;;16.00;;
3439;SDS011;1733;42.286;22.690;2023-03-23T01:48:58;36.30;;;16.43;;
3439;SDS011;1733;42.286;22.690;2023-03-23T01:51:32;20.07;;;12.53;;
3439;SDS011;1733;42.286;22.690;2023-03-23T01:54:02;18.07;;;12.37;;
3439;SDS011;1733;42.286;22.690;2023-03-23T01:56:34;24.43;;;13.13;;
3439;SDS011;1733;42.286;22.690;2023-03-23T01:59:06;19.73;;;12.00;;
3439;SDS011;1733;42.286;22.690;2023-03-23T02:01:33;25.23;;;10.87;;
3439;SDS011;1733;42.286;22.690;2023-03-23T02:04:04;17.13;;;10.33;;
3439;SDS011;1733;42.286;22.690;2023-03-23T02:06:32;24.90;;;9.90;;
3439;SDS011;1733;42.286;22.690;2023-03-23T02:08:59;13.73;;;9.93;;
3439;SDS011;1733;42.286;22.690;2023-03-23T02:11:27;22.97;;;11.17;;
3439;SDS011;1733;42.286;22.690;2023-03-23T02:13:54;27.23;;;14.57;;
3439;SDS011;1733;42.286;22.690;2023-03-23T02:16:23;24.03;;;15.23;;
3439;SDS011;1733;42.286;22.690;2023-03-23T02:18:58;26.03;;;14.07;;
3439;SDS011;1733;42.286;22.690;2023-03-23T02:21:58;34.37;;;14.57;;
3439;SDS011;1733;42.286;22.690;2023-03-23T02:27:35;31.80;;;12.30;;
3439;SDS011;1733;42.286;22.690;2023-03-23T02:30:29;23.30;;;11.70;;
3439;SDS011;1733;42.286;22.690;2023-03-23T02:36:02;33.37;;;14.03;;
3439;SDS011;1733;42.286;22.690;2023-03-23T02:38:37;24.50;;;12.07;;
3439;SDS011;1733;42.286;22.690;2023-03-23T02:41:09;31.50;;;13.80;;
3439;SDS011;1733;42.286;22.690;2023-03-23T02:43:39;19.00;;;12.70;;
3439;SDS011;1733;42.286;22.690;2023-03-23T02:46:10;39.43;;;12.40;;
3439;SDS011;1733;42.286;22.690;2023-03-23T02:48:38;26.47;;;13.83;;
3439;SDS011;1733;42.286;22.690;2023-03-23T02:51:10;27.80;;;13.77;;
3439;SDS011;1733;42.286;22.690;2023-03-23T02:53:39;27.53;;;14.20;;
3439;SDS011;1733;42.286;22.690;2023-03-23T02:56:09;21.10;;;14.43;;
3439;SDS011;1733;42.286;22.690;2023-03-23T02:58:38;38.03;;;16.77;;
3439;SDS011;1733;42.286;22.690;2023-03-23T03:01:16;32.37;;;18.10;;
3439;SDS011;1733;42.286;22.690;2023-03-23T03:04:17;21.23;;;13.57;;
3439;SDS011;1733;42.286;22.690;2023-03-23T03:06:48;25.60;;;12.93;;
3439;SDS011;1733;42.286;22.690;2023-03-23T03:09:23;29.50;;;12.33;;
3439;SDS011;1733;42.286;22.690;2023-03-23T03:11:58;23.23;;;11.87;;
3439;SDS011;1733;42.286;22.690;2023-03-23T03:14:31;19.53;;;13.30;;
3439;SDS011;1733;42.286;22.690;2023-03-23T03:17:04;36.63;;;13.40;;
3439;SDS011;1733;42.286;22.690;2023-03-23T03:19:38;34.03;;;17.07;;
3439;SDS011;1733;42.286;22.690;2023-03-23T03:22:08;19.47;;;12.37;;
3439;SDS011;1733;42.286;22.690;2023-03-23T03:24:36;26.63;;;12.20;;
3439;SDS011;1733;42.286;22.690;2023-03-23T03:27:04;18.40;;;12.43;;
3439;SDS011;1733;42.286;22.690;2023-03-23T03:29:38;11.37;;;8.60;;
3439;SDS011;1733;42.286;22.690;2023-03-23T03:32:08;16.63;;;9.90;;
3439;SDS011;1733;42.286;22.690;2023-03-23T03:34:40;9.23;;;7.93;;
3439;SDS011;1733;42.286;22.690;2023-03-23T03:37:07;20.30;;;10.07;;
3439;SDS011;1733;42.286;22.690;2023-03-23T03:39:37;35.07;;;14.30;;
3439;SDS011;1733;42.286;22.690;2023-03-23T03:42:05;22.53;;;10.97;;
3439;SDS011;1733;42.286;22.690;2023-03-23T03:44:32;20.40;;;10.73;;
3439;SDS011;1733;42.286;22.690;2023-03-23T03:47:00;15.93;;;9.97;;
3439;SDS011;1733;42.286;22.690;2023-03-23T03:49:27;30.37;;;13.23;;
3439;SDS011;1733;42.286;22.690;2023-03-23T03:51:55;21.90;;;12.23;;
3439;SDS011;1733;42.286;22.690;2023-03-23T03:54:22;24.07;;;13.50;;
3439;SDS011;1733;42.286;22.690;2023-03-23T03:56:49;20.77;;;15.03;;
3439;SDS011;1733;42.286;22.690;2023-03-23T03:59:16;24.57;;;15.03;;
3439;SDS011;1733;42.286;22.690;2023-03-23T04:01:43;32.43;;;18.40;;
3439;SDS011;1733;42.286;22.690;2023-03-23T04:04:10;33.20;;;16.57;;
3439;SDS011;1733;42.286;22.690;2023-03-23T04:06:37;47.70;;;17.70;;
3439;SDS011;1733;42.286;22.690;2023-03-23T04:09:06;50.23;;;18.10;;
3439;SDS011;1733;42.286;22.690;2023-03-23T04:11:33;39.17;;;15.97;;
3439;SDS011;1733;42.286;22.690;2023-03-23T04:14:01;41.33;;;17.20;;
3439;SDS011;1733;42.286;22.690;2023-03-23T04:16:28;45.80;;;19.80;;
3439;SDS011;1733;42.286;22.690;2023-03-23T04:18:56;42.97;;;16.80;;
3439;SDS011;1733;42.286;22.690;2023-03-23T04:21:22;42.07;;;17.30;;
3439;SDS011;1733;42.286;22.690;2023-03-23T04:23:54;37.77;;;15.27;;
3439;SDS011;1733;42.286;22.690;2023-03-23T04:26:25;35.00;;;13.00;;
3439;SDS011;1733;42.286;22.690;2023-03-23T04:28:53;44.43;;;13.40;;
3439;SDS011;1733;42.286;22.690;2023-03-23T04:31:20;33.77;;;14.83;;
3439;SDS011;1733;42.286;22.690;2023-03-23T04:33:49;46.37;;;17.30;;
3439;SDS011;1733;42.286;22.690;2023-03-23T04:36:18;32.90;;;14.17;;
3439;SDS011;1733;42.286;22.690;2023-03-23T04:38:47;34.73;;;15.43;;
3439;SDS011;1733;42.286;22.690;2023-03-23T04:41:15;37.80;;;18.97;;
3439;SDS011;1733;42.286;22.690;2023-03-23T04:43:43;58.03;;;24.00;;
3439;SDS011;1733;42.286;22.690;2023-03-23T04:46:10;67.87;;;25.53;;
3439;SDS011;1733;42.286;22.690;2023-03-23T04:48:41;58.53;;;24.80;;
3439;SDS011;1733;42.286;22.690;2023-03-23T04:51:08;70.13;;;24.23;;
3439;SDS011;1733;42.286;22.690;2023-03-23T04:53:35;45.53;;;20.17;;
3439;SDS011;1733;42.286;22.690;2023-03-23T04:56:02;63.13;;;20.40;;
3439;SDS011;1733;42.286;22.690;2023-03-23T04:58:29;40.63;;;22.90;;
3439;SDS011;1733;42.286;22.690;2023-03-23T05:01:00;37.57;;;22.83;;
3439;SDS011;1733;42.286;22.690;2023-03-23T05:03:27;54.37;;;21.60;;
3439;SDS011;1733;42.286;22.690;2023-03-23T05:05:54;46.30;;;22.93;;
3439;SDS011;1733;42.286;22.690;2023-03-23T05:08:22;47.13;;;21.30;;
3439;SDS011;1733;42.286;22.690;2023-03-23T05:10:50;65.20;;;18.70;;
3439;SDS011;1733;42.286;22.690;2023-03-23T05:13:19;44.53;;;15.17;;
3439;SDS011;1733;42.286;22.690;2023-03-23T05:15:46;28.93;;;14.47;;
3439;SDS011;1733;42.286;22.690;2023-03-23T05:18:14;40.63;;;15.00;;
3439;SDS011;1733;42.286;22.690;2023-03-23T05:20:42;36.97;;;16.93;;
3439;SDS011;1733;42.286;22.690;2023-03-23T05:23:11;46.60;;;16.07;;
3439;SDS011;1733;42.286;22.690;2023-03-23T05:25:39;37.93;;;13.63;;
3439;SDS011;1733;42.286;22.690;2023-03-23T05:28:06;46.60;;;15.97;;
3439;SDS011;1733;42.286;22.690;2023-03-23T05:30:33;25.77;;;15.23;;
3439;SDS011;1733;42.286;22.690;2023-03-23T05:33:01;39.20;;;15.70;;
3439;SDS011;1733;42.286;22.690;2023-03-23T05:35:30;42.77;;;15.57;;
3439;SDS011;1733;42.286;22.690;2023-03-23T05:37:57;38.50;;;14.10;;
3439;SDS011;1733;42.286;22.690;2023-03-23T05:40:24;35.70;;;15.27;;
3439;SDS011;1733;42.286;22.690;2023-03-23T05:42:53;39.27;;;17.27;;
3439;SDS011;1733;42.286;22.690;2023-03-23T05:45:22;37.40;;;16.17;;
3439;SDS011;1733;42.286;22.690;2023-03-23T05:47:49;32.93;;;15.73;;
3439;SDS011;1733;42.286;22.690;2023-03-23T05:50:16;41.33;;;16.63;;
3439;SDS011;1733;42.286;22.690;2023-03-23T05:52:45;41.50;;;16.80;;
3439;SDS011;1733;42.286;22.690;2023-03-23T05:55:12;48.23;;;18.90;;
3439;SDS011;1733;42.286;22.690;2023-03-23T05:57:40;36.13;;;19.43;;
3439;SDS011;1733;42.286;22.690;2023-03-23T06:00:07;36.23;;;21.17;;
3439;SDS011;1733;42.286;22.690;2023-03-23T06:02:45;30.50;;;16.37;;
3439;SDS011;1733;42.286;22.690;2023-03-23T06:05:13;58.63;;;23.07;;
3439;SDS011;1733;42.286;22.690;2023-03-23T06:07:41;48.70;;;24.70;;
3439;SDS011;1733;42.286;22.690;2023-03-23T06:10:09;46.73;;;21.43;;
3439;SDS011;1733;42.286;22.690;2023-03-23T06:12:37;56.53;;;22.63;;
3439;SDS011;1733;42.286;22.690;2023-03-23T06:15:06;56.43;;;22.67;;
3439;SDS011;1733;42.286;22.690;2023-03-23T06:17:34;49.90;;;21.53;;
3439;SDS011;1733;42.286;22.690;2023-03-23T06:20:02;49.50;;;23.20;;
3439;SDS011;1733;42.286;22.690;2023-03-23T06:22:34;37.97;;;19.27;;
3439;SDS011;1733;42.286;22.690;2023-03-23T06:25:01;33.00;;;17.30;;
3439;SDS011;1733;42.286;22.690;2023-03-23T06:27:29;34.07;;;17.47;;
3439;SDS011;1733;42.286;22.690;2023-03-23T06:29:56;32.93;;;17.90;;
3439;SDS011;1733;42.286;22.690;2023-03-23T06:32:23;41.20;;;18.40;;
3439;SDS011;1733;42.286;22.690;2023-03-23T06:34:52;38.70;;;18.67;;
3439;SDS011;1733;42.286;22.690;2023-03-23T06:37:20;34.50;;;15.83;;
3439;SDS011;1733;42.286;22.690;2023-03-23T06:39:46;36.20;;;17.70;;
3439;SDS011;1733;42.286;22.690;2023-03-23T06:42:13;29.50;;;18.07;;
3439;SDS011;1733;42.286;22.690;2023-03-23T06:44:42;35.20;;;22.60;;
3439;SDS011;1733;42.286;22.690;2023-03-23T06:47:09;28.63;;;17.10;;
3439;SDS011;1733;42.286;22.690;2023-03-23T06:49:35;36.53;;;19.57;;
3439;SDS011;1733;42.286;22.690;2023-03-23T06:52:02;37.43;;;17.43;;
3439;SDS011;1733;42.286;22.690;2023-03-23T06:54:31;31.90;;;15.17;;
3439;SDS011;1733;42.286;22.690;2023-03-23T06:56:58;28.00;;;18.50;;
3439;SDS011;1733;42.286;22.690;2023-03-23T06:59:25;27.07;;;14.70;;
3439;SDS011;1733;42.286;22.690;2023-03-23T07:01:53;21.13;;;14.30;;
3439;SDS011;1733;42.286;22.690;2023-03-23T07:04:21;35.63;;;15.80;;
3439;SDS011;1733;42.286;22.690;2023-03-23T07:06:48;28.57;;;14.90;;
3439;SDS011;1733;42.286;22.690;2023-03-23T07:09:15;20.30;;;13.13;;
3439;SDS011;1733;42.286;22.690;2023-03-23T07:11:42;23.57;;;12.40;;
3439;SDS011;1733;42.286;22.690;2023-03-23T07:14:12;30.97;;;13.00;;
3439;SDS011;1733;42.286;22.690;2023-03-23T07:16:40;24.57;;;15.80;;
3439;SDS011;1733;42.286;22.690;2023-03-23T07:19:08;23.73;;;13.87;;
3439;SDS011;1733;42.286;22.690;2023-03-23T07:21:35;24.33;;;12.30;;
3439;SDS011;1733;42.286;22.690;2023-03-23T07:24:02;15.57;;;12.33;;
3439;SDS011;1733;42.286;22.690;2023-03-23T07:26:30;20.23;;;12.00;;
3439;SDS011;1733;42.286;22.690;2023-03-23T07:28:56;15.90;;;9.40;;
3439;SDS011;1733;42.286;22.690;2023-03-23T07:31:24;14.77;;;11.07;;
3439;SDS011;1733;42.286;22.690;2023-03-23T07:33:51;14.23;;;10.03;;
3439;SDS011;1733;42.286;22.690;2023-03-23T07:36:19;13.33;;;10.30;;
3439;SDS011;1733;42.286;22.690;2023-03-23T07:38:46;16.47;;;10.90;;
3439;SDS011;1733;42.286;22.690;2023-03-23T07:41:15;17.50;;;11.50;;
3439;SDS011;1733;42.286;22.690;2023-03-23T07:43:42;11.30;;;8.03;;
3439;SDS011;1733;42.286;22.690;2023-03-23T07:46:09;17.73;;;9.53;;
3439;SDS011;1733;42.286;22.690;2023-03-23T07:48:36;18.80;;;10.23;;
3439;SDS011;1733;42.286;22.690;2023-03-23T07:51:04;17.77;;;10.53;;
3439;SDS011;1733;42.286;22.690;2023-03-23T07:53:33;21.57;;;12.97;;
3439;SDS011;1733;42.286;22.690;2023-03-23T07:56:00;16.43;;;10.80;;
3439;SDS011;1733;42.286;22.690;2023-03-23T07:58:28;31.63;;;10.70;;
3439;SDS011;1733;42.286;22.690;2023-03-23T08:00:55;14.43;;;10.60;;
3439;SDS011;1733;42.286;22.690;2023-03-23T08:03:22;21.10;;;9.50;;
3439;SDS011;1733;42.286;22.690;2023-03-23T08:05:49;14.17;;;9.20;;
3439;SDS011;1733;42.286;22.690;2023-03-23T08:08:16;12.73;;;9.60;;
3439;SDS011;1733;42.286;22.690;2023-03-23T08:10:45;14.07;;;11.37;;
3439;SDS011;1733;42.286;22.690;2023-03-23T08:13:11;16.67;;;10.57;;
3439;SDS011;1733;42.286;22.690;2023-03-23T08:15:39;17.77;;;10.73;;
3439;SDS011;1733;42.286;22.690;2023-03-23T08:18:06;17.70;;;10.73;;
3439;SDS011;1733;42.286;22.690;2023-03-23T08:20:33;25.97;;;15.37;;
3439;SDS011;1733;42.286;22.690;2023-03-23T08:23:00;17.00;;;10.13;;
3439;SDS011;1733;42.286;22.690;2023-03-23T08:25:28;18.67;;;11.33;;
3439;SDS011;1733;42.286;22.690;2023-03-23T08:27:58;22.80;;;13.07;;
3439;SDS011;1733;42.286;22.690;2023-03-23T08:30:27;23.60;;;13.23;;
3439;SDS011;1733;42.286;22.690;2023-03-23T08:32:55;31.27;;;14.57;;
3439;SDS011;1733;42.286;22.690;2023-03-23T08:35:23;24.43;;;14.43;;
3439;SDS011;1733;42.286;22.690;2023-03-23T08:37:50;21.13;;;12.93;;
3439;SDS011;1733;42.286;22.690;2023-03-23T08:40:19;26.37;;;13.33;;
3439;SDS011;1733;42.286;22.690;2023-03-23T08:42:48;19.33;;;13.27;;
3439;SDS011;1733;42.286;22.690;2023-03-23T08:45:18;27.57;;;14.43;;
3439;SDS011;1733;42.286;22.690;2023-03-23T08:47:47;21.27;;;14.47;;
3439;SDS011;1733;42.286;22.690;2023-03-23T08:50:17;23.67;;;12.93;;
3439;SDS011;1733;42.286;22.690;2023-03-23T08:52:46;17.47;;;12.60;;
3439;SDS011;1733;42.286;22.690;2023-03-23T08:55:14;19.00;;;13.50;;
3439;SDS011;1733;42.286;22.690;2023-03-23T08:57:42;26.43;;;18.60;;
3439;SDS011;1733;42.286;22.690;2023-03-23T09:00:11;22.93;;;13.50;;
3439;SDS011;1733;42.286;22.690;2023-03-23T09:02:44;20.63;;;9.03;;
3439;SDS011;1733;42.286;22.690;2023-03-23T09:05:12;9.67;;;6.20;;
3439;SDS011;1733;42.286;22.690;2023-03-23T09:07:40;5.77;;;4.30;;
3439;SDS011;1733;42.286;22.690;2023-03-23T09:10:09;12.73;;;9.17;;
3439;SDS011;1733;42.286;22.690;2023-03-23T09:12:36;5.87;;;4.73;;
3439;SDS011;1733;42.286;22.690;2023-03-23T09:15:03;7.33;;;4.77;;
3439;SDS011;1733;42.286;22.690;2023-03-23T09:17:34;7.90;;;4.70;;
3439;SDS011;1733;42.286;22.690;2023-03-23T09:20:04;4.57;;;4.13;;
3439;SDS011;1733;42.286;22.690;2023-03-23T09:22:36;5.03;;;3.90;;
3439;SDS011;1733;42.286;22.690;2023-03-23T09:25:03;5.40;;;4.33;;
3439;SDS011;1733;42.286;22.690;2023-03-23T09:27:31;8.87;;;4.00;;
3439;SDS011;1733;42.286;22.690;2023-03-23T09:29:58;10.63;;;3.70;;
3439;SDS011;1733;42.286;22.690;2023-03-23T09:32:26;7.30;;;4.13;;
3439;SDS011;1733;42.286;22.690;2023-03-23T09:34:53;4.93;;;4.50;;
3439;SDS011;1733;42.286;22.690;2023-03-23T09:37:22;5.77;;;5.27;;
3439;SDS011;1733;42.286;22.690;2023-03-23T09:39:49;3.80;;;3.50;;
3439;SDS011;1733;42.286;22.690;2023-03-23T09:45:09;6.70;;;5.03;;
3439;SDS011;1733;42.286;22.690;2023-03-23T09:47:44;13.63;;;3.90;;
3439;SDS011;1733;42.286;22.690;2023-03-23T09:50:21;3.70;;;3.40;;
3439;SDS011;1733;42.286;22.690;2023-03-23T09:52:58;3.73;;;3.43;;
3439;SDS011;1733;42.286;22.690;2023-03-23T09:55:29;3.77;;;3.10;;
3439;SDS011;1733;42.286;22.690;2023-03-23T09:57:57;3.60;;;3.30;;
3439;SDS011;1733;42.286;22.690;2023-03-23T10:00:29;3.40;;;3.10;;
3439;SDS011;1733;42.286;22.690;2023-03-23T10:03:00;3.20;;;2.90;;
3439;SDS011;1733;42.286;22.690;2023-03-23T10:05:34;10.93;;;4.07;;
3439;SDS011;1733;42.286;22.690;2023-03-23T10:08:08;8.63;;;4.00;;
3439;SDS011;1733;42.286;22.690;2023-03-23T10:10:45;25.77;;;16.90;;
3439;SDS011;1733;42.286;22.690;2023-03-23T10:13:18;4.10;;;3.73;;
3439;SDS011;1733;42.286;22.690;2023-03-23T10:16:00;3.07;;;2.77;;
3439;SDS011;1733;42.286;22.690;2023-03-23T10:18:36;3.30;;;3.00;;
3439;SDS011;1733;42.286;22.690;2023-03-23T10:21:04;6.37;;;4.43;;
3439;SDS011;1733;42.286;22.690;2023-03-23T10:23:44;4.97;;;3.20;;
3439;SDS011;1733;42.286;22.690;2023-03-23T10:26:29;5.60;;;2.90;;
3439;SDS011;1733;42.286;22.690;2023-03-23T10:29:08;4.47;;;3.80;;
3439;SDS011;1733;42.286;22.690;2023-03-23T10:31:42;3.23;;;2.63;;
3439;SDS011;1733;42.286;22.690;2023-03-23T10:34:12;2.10;;;2.00;;
3439;SDS011;1733;42.286;22.690;2023-03-23T10:36:51;3.00;;;2.80;;
3439;SDS011;1733;42.286;22.690;2023-03-23T10:39:25;2.97;;;2.73;;
3439;SDS011;1733;42.286;22.690;2023-03-23T10:41:57;3.17;;;2.90;;
3439;SDS011;1733;42.286;22.690;2023-03-23T10:44:32;3.40;;;3.20;;
3439;SDS011;1733;42.286;22.690;2023-03-23T10:47:00;3.20;;;2.90;;
3439;SDS011;1733;42.286;22.690;2023-03-23T10:49:30;4.77;;;3.87;;
3439;SDS011;1733;42.286;22.690;2023-03-23T10:52:09;3.90;;;3.03;;
3439;SDS011;1733;42.286;22.690;2023-03-23T10:54:50;2.97;;;2.70;;
3439;SDS011;1733;42.286;22.690;2023-03-23T10:57:20;3.33;;;3.03;;
3439;SDS011;1733;42.286;22.690;2023-03-23T10:59:49;3.00;;;2.37;;
3439;SDS011;1733;42.286;22.690;2023-03-23T11:02:17;3.93;;;3.50;;
3439;SDS011;1733;42.286;22.690;2023-03-23T11:04:47;3.17;;;2.40;;
3439;SDS011;1733;42.286;22.690;2023-03-23T11:07:25;3.37;;;3.07;;
3439;SDS011;1733;42.286;22.690;2023-03-23T11:09:56;5.50;;;3.30;;
3439;SDS011;1733;42.286;22.690;2023-03-23T11:12:24;4.17;;;3.20;;
3439;SDS011;1733;42.286;22.690;2023-03-23T11:14:51;4.60;;;3.07;;
3439;SDS011;1733;42.286;22.690;2023-03-23T11:17:20;4.80;;;3.10;;
3439;SDS011;1733;42.286;22.690;2023-03-23T11:19:49;2.97;;;2.77;;
3439;SDS011;1733;42.286;22.690;2023-03-23T11:22:19;3.23;;;2.83;;
3439;SDS011;1733;42.286;22.690;2023-03-23T11:24:52;3.90;;;3.23;;
3439;SDS011;1733;42.286;22.690;2023-03-23T11:27:23;2.87;;;2.67;;
3439;SDS011;1733;42.286;22.690;2023-03-23T11:29:51;5.77;;;3.53;;
3439;SDS011;1733;42.286;22.690;2023-03-23T11:32:22;4.40;;;2.37;;
3439;SDS011;1733;42.286;22.690;2023-03-23T11:34:53;5.70;;;4.13;;
3439;SDS011;1733;42.286;22.690;2023-03-23T11:37:25;2.33;;;2.13;;
3439;SDS011;1733;42.286;22.690;2023-03-23T11:39:57;4.37;;;2.50;;
3439;SDS011;1733;42.286;22.690;2023-03-23T11:42:34;3.03;;;2.73;;
3439;SDS011;1733;42.286;22.690;2023-03-23T11:45:13;3.07;;;2.70;;
3439;SDS011;1733;42.286;22.690;2023-03-23T11:47:42;3.60;;;3.03;;
3439;SDS011;1733;42.286;22.690;2023-03-23T11:50:14;3.77;;;3.27;;
3439;SDS011;1733;42.286;22.690;2023-03-23T11:52:45;2.93;;;2.73;;
3439;SDS011;1733;42.286;22.690;2023-03-23T11:55:19;3.50;;;2.50;;
3439;SDS011;1733;42.286;22.690;2023-03-23T11:57:52;3.60;;;3.30;;
3439;SDS011;1733;42.286;22.690;2023-03-23T12:00:22;3.60;;;3.30;;
3439;SDS011;1733;42.286;22.690;2023-03-23T12:06:05;4.23;;;3.27;;
3439;SDS011;1733;42.286;22.690;2023-03-23T12:08:38;2.77;;;2.47;;
3439;SDS011;1733;42.286;22.690;2023-03-23T12:11:25;3.83;;;2.70;;
3439;SDS011;1733;42.286;22.690;2023-03-23T12:14:04;3.80;;;3.13;;
3439;SDS011;1733;42.286;22.690;2023-03-23T12:16:44;4.90;;;3.70;;
3439;SDS011;1733;42.286;22.690;2023-03-23T12:19:28;4.40;;;2.73;;
3439;SDS011;1733;42.286;22.690;2023-03-23T12:22:04;2.50;;;2.30;;
3439;SDS011;1733;42.286;22.690;2023-03-23T12:24:43;3.20;;;2.60;;
3439;SDS011;1733;42.286;22.690;2023-03-23T12:27:25;5.27;;;3.97;;
3439;SDS011;1733;42.286;22.690;2023-03-23T12:30:19;2.83;;;2.60;;
3439;SDS011;1733;42.286;22.690;2023-03-23T12:32:58;3.83;;;2.90;;
3439;SDS011;1733;42.286;22.690;2023-03-23T12:35:38;11.10;;;7.63;;
3439;SDS011;1733;42.286;22.690;2023-03-23T12:38:18;2.97;;;2.77;;
3439;SDS011;1733;42.286;22.690;2023-03-23T12:41:01;3.33;;;3.03;;
3439;SDS011;1733;42.286;22.690;2023-03-23T12:43:34;2.60;;;2.40;;
3439;SDS011;1733;42.286;22.690;2023-03-23T12:46:14;8.73;;;3.73;;
3439;SDS011;1733;42.286;22.690;2023-03-23T12:48:51;4.63;;;3.13;;
3439;SDS011;1733;42.286;22.690;2023-03-23T12:51:24;2.80;;;2.50;;
3439;SDS011;1733;42.286;22.690;2023-03-23T12:54:03;3.20;;;2.47;;
3439;SDS011;1733;42.286;22.690;2023-03-23T12:56:39;3.20;;;2.40;;
3439;SDS011;1733;42.286;22.690;2023-03-23T12:59:15;4.63;;;3.17;;
3439;SDS011;1733;42.286;22.690;2023-03-23T13:01:50;2.87;;;2.67;;
3439;SDS011;1733;42.286;22.690;2023-03-23T13:04:20;4.03;;;3.63;;
3439;SDS011;1733;42.286;22.690;2023-03-23T13:06:52;2.40;;;2.20;;
3439;SDS011;1733;42.286;22.690;2023-03-23T13:09:20;5.10;;;3.13;;
3439;SDS011;1733;42.286;22.690;2023-03-23T13:11:53;3.40;;;3.20;;
3439;SDS011;1733;42.286;22.690;2023-03-23T13:14:25;3.93;;;3.60;;
3439;SDS011;1733;42.286;22.690;2023-03-23T13:17:02;2.80;;;2.60;;
3439;SDS011;1733;42.286;22.690;2023-03-23T13:19:51;2.27;;;2.07;;
3439;SDS011;1733;42.286;22.690;2023-03-23T13:22:27;3.87;;;3.53;;
3439;SDS011;1733;42.286;22.690;2023-03-23T13:25:02;8.83;;;3.17;;
3439;SDS011;1733;42.286;22.690;2023-03-23T13:27:34;2.60;;;2.40;;
3439;SDS011;1733;42.286;22.690;2023-03-23T13:30:01;2.50;;;2.30;;
3439;SDS011;1733;42.286;22.690;2023-03-23T13:32:33;3.30;;;2.97;;
3439;SDS011;1733;42.286;22.690;2023-03-23T13:35:02;2.60;;;2.40;;
3439;SDS011;1733;42.286;22.690;2023-03-23T13:37:32;2.30;;;2.00;;
3439;SDS011;1733;42.286;22.690;2023-03-23T13:40:11;3.95;;;2.55;;
3439;SDS011;1733;42.286;22.690;2023-03-23T13:42:48;3.25;;;2.95;;
3439;SDS011;1733;42.286;22.690;2023-03-23T13:45:21;2.85;;;2.50;;
3439;SDS011;1733;42.286;22.690;2023-03-23T13:48:02;3.15;;;2.35;;
3439;SDS011;1733;42.286;22.690;2023-03-23T13:50:31;3.58;;;2.63;;
3439;SDS011;1733;42.286;22.690;2023-03-23T13:53:14;3.95;;;3.65;;
3439;SDS011;1733;42.286;22.690;2023-03-23T13:55:48;3.83;;;3.42;;
3439;SDS011;1733;42.286;22.690;2023-03-23T13:58:23;5.35;;;3.80;;
3439;SDS011;1733;42.286;22.690;2023-03-23T14:01:01;3.47;;;3.10;;
3439;SDS011;1733;42.286;22.690;2023-03-23T14:03:39;3.78;;;3.42;;
3439;SDS011;1733;42.286;22.690;2023-03-23T14:06:11;4.07;;;3.78;;
3439;SDS011;1733;42.286;22.690;2023-03-23T14:08:41;3.55;;;2.50;;
3439;SDS011;1733;42.286;22.690;2023-03-23T14:11:11;3.25;;;3.05;;
3439;SDS011;1733;42.286;22.690;2023-03-23T14:13:42;4.35;;;3.35;;
3439;SDS011;1733;42.286;22.690;2023-03-23T14:16:16;3.30;;;2.95;;
3439;SDS011;1733;42.286;22.690;2023-03-23T14:18:54;4.25;;;3.85;;
3439;SDS011;1733;42.286;22.690;2023-03-23T14:21:23;5.40;;;4.32;;
3439;SDS011;1733;42.286;22.690;2023-03-23T14:23:59;8.40;;;5.15;;
3439;SDS011;1733;42.286;22.690;2023-03-23T14:26:32;3.75;;;3.33;;
3439;SDS011;1733;42.286;22.690;2023-03-23T14:29:00;5.53;;;4.28;;
3439;SDS011;1733;42.286;22.690;2023-03-23T14:31:28;6.55;;;5.68;;
3439;SDS011;1733;42.286;22.690;2023-03-23T14:34:00;4.40;;;4.00;;
3439;SDS011;1733;42.286;22.690;2023-03-23T14:36:29;4.68;;;3.67;;
3439;SDS011;1733;42.286;22.690;2023-03-23T14:38:59;3.45;;;3.15;;
3439;SDS011;1733;42.286;22.690;2023-03-23T14:41:29;5.45;;;3.78;;
3439;SDS011;1733;42.286;22.690;2023-03-23T14:43:58;4.57;;;3.85;;
3439;SDS011;1733;42.286;22.690;2023-03-23T14:46:27;3.42;;;3.13;;
3439;SDS011;1733;42.286;22.690;2023-03-23T14:48:57;7.28;;;3.65;;
3439;SDS011;1733;42.286;22.690;2023-03-23T14:51:27;6.32;;;4.00;;
3439;SDS011;1733;42.286;22.690;2023-03-23T14:53:53;3.72;;;3.40;;
3439;SDS011;1733;42.286;22.690;2023-03-23T14:56:22;4.30;;;3.97;;
3439;SDS011;1733;42.286;22.690;2023-03-23T14:58:53;4.60;;;4.20;;
3439;SDS011;1733;42.286;22.690;2023-03-23T15:01:21;4.75;;;3.35;;
3439;SDS011;1733;42.286;22.690;2023-03-23T15:03:53;4.65;;;3.67;;
3439;SDS011;1733;42.286;22.690;2023-03-23T15:06:25;4.85;;;3.97;;
3439;SDS011;1733;42.286;22.690;2023-03-23T15:08:55;6.45;;;4.22;;
3439;SDS011;1733;42.286;22.690;2023-03-23T15:11:25;4.05;;;3.65;;
3439;SDS011;1733;42.286;22.690;2023-03-23T15:13:56;4.72;;;4.32;;
3439;SDS011;1733;42.286;22.690;2023-03-23T15:16:29;10.45;;;4.20;;